Time;durP1;ratioP1;P1;durP2;ratioP2;P2;SDS_P1;SDS_P2;PMS_P1;PMS_P2;Temp;Humidity;BMP_temperature;BMP_pressure;BME280_temperature;BME280_humidity;BME280_pressure;Samples;Min_cycle;Max_cycle;Signal;HPM_P1;HPM_P2
2022/11/11 00:00:22;;;;;;;13.18;6.82;;;;;;;11.42;68.91;102780.72;5031846;28;20029;-71
2022/11/11 00:02:48;;;;;;;11.02;7.45;;;;;;;11.40;69.07;102786.50;5037792;28;20351;-70
2022/11/11 00:05:15;;;;;;;12.23;7.65;;;;;;;11.40;69.02;102786.50;5031690;28;20029;-71
2022/11/11 00:07:40;;;;;;;11.45;8.48;;;;;;;11.42;68.80;102791.84;5044691;28;20037;-71
2022/11/11 00:10:06;;;;;;;11.90;7.68;;;;;;;11.40;69.17;102792.06;5042955;28;20395;-71
2022/11/11 00:12:31;;;;;;;13.32;8.93;;;;;;;11.45;68.94;102788.66;5030982;28;20036;-71
2022/11/11 00:14:57;;;;;;;12.50;8.55;;;;;;;11.44;69.31;102785.03;5031287;28;20026;-70
2022/11/11 00:25:41;;;;;;;17.73;10.02;;;;;;;11.49;69.40;102785.22;5031128;28;20043;-71
2022/11/11 00:28:26;;;;;;;16.08;10.68;;;;;;;11.52;69.50;102783.97;5030982;28;20018;-70
2022/11/11 00:31:00;;;;;;;13.23;9.95;;;;;;;11.45;69.76;102792.28;5031404;28;20096;-70
2022/11/11 00:33:25;;;;;;;15.27;10.60;;;;;;;11.32;70.09;102806.16;5031174;28;20026;-71
2022/11/11 00:36:12;;;;;;;14.90;10.75;;;;;;;11.34;70.20;102804.03;5043269;28;20123;-69
2022/11/11 00:38:44;;;;;;;20.58;10.80;;;;;;;11.39;70.11;102807.00;5028495;28;20116;-71
2022/11/11 00:41:14;;;;;;;15.23;11.27;;;;;;;11.42;69.85;102798.25;5030569;28;20791;-71
2022/11/11 00:43:40;;;;;;;14.45;10.55;;;;;;;11.41;70.23;102798.47;5039627;28;20392;-71
2022/11/11 00:51:33;;;;;;;14.43;11.05;;;;;;;11.46;70.02;102819.00;5030223;28;20040;-71
2022/11/11 00:53:59;;;;;;;14.60;11.27;;;;;;;11.42;70.16;102812.16;5033867;28;20033;-70
2022/11/11 00:56:24;;;;;;;16.00;11.77;;;;;;;11.43;70.38;102802.75;5029947;28;20037;-71
2022/11/11 00:58:50;;;;;;;15.15;11.48;;;;;;;11.45;70.54;102811.75;5035962;28;20025;-71
2022/11/11 01:01:16;;;;;;;14.13;10.80;;;;;;;11.44;70.53;102815.59;5040510;28;20128;-71
2022/11/11 01:03:41;;;;;;;16.50;10.65;;;;;;;11.47;70.29;102819.88;5030460;28;20036;-71
2022/11/11 01:06:06;;;;;;;13.15;10.80;;;;;;;11.49;70.33;102817.75;5035929;28;20538;-71
2022/11/11 01:08:32;;;;;;;17.67;11.32;;;;;;;11.54;70.08;102827.16;5045454;28;20032;-71
2022/11/11 01:10:58;;;;;;;12.77;9.90;;;;;;;11.54;70.29;102821.59;5034486;28;20029;-71
2022/11/11 01:13:28;;;;;;;15.73;11.60;;;;;;;11.54;70.24;102835.50;5030819;28;20017;-71
2022/11/11 01:16:01;;;;;;;17.05;11.18;;;;;;;11.55;70.42;102839.13;5030905;28;20029;-71
2022/11/11 01:18:28;;;;;;;18.42;11.82;;;;;;;11.53;70.14;102833.78;5031915;28;20037;-71
2022/11/11 01:21:18;;;;;;;12.63;10.93;;;;;;;11.59;70.40;102818.16;5035612;28;20025;-71
2022/11/11 01:23:45;;;;;;;15.60;11.68;;;;;;;11.59;70.17;102828.44;5047755;28;20040;-71
2022/11/11 01:26:22;;;;;;;17.35;11.63;;;;;;;11.57;70.34;102838.94;5047926;28;20041;-71
2022/11/11 01:28:50;;;;;;;17.38;12.55;;;;;;;11.61;70.02;102821.63;5048298;28;20033;-71
2022/11/11 01:31:17;;;;;;;17.75;11.63;;;;;;;11.59;70.43;102820.09;5050453;28;20029;-71
2022/11/11 01:33:42;;;;;;;19.45;12.13;;;;;;;11.52;70.31;102817.34;5041888;28;20100;-71
2022/11/11 01:36:13;;;;;;;17.33;12.73;;;;;;;11.55;70.41;102828.88;5031531;28;20055;-71
2022/11/11 01:38:41;;;;;;;14.50;11.38;;;;;;;11.53;70.56;102825.44;5033703;28;20427;-71
2022/11/11 01:43:52;;;;;;;15.98;12.65;;;;;;;11.53;70.43;102817.09;5039839;28;20452;-71
2022/11/11 01:46:51;;;;;;;16.15;11.30;;;;;;;11.53;70.60;102817.09;5050617;28;20025;-71
2022/11/11 01:49:36;;;;;;;16.13;11.90;;;;;;;11.59;70.25;102801.47;5034172;28;20068;-71
2022/11/11 01:52:05;;;;;;;13.40;11.52;;;;;;;11.55;70.40;102803.84;5033826;28;20105;-71
2022/11/11 01:54:46;;;;;;;14.35;11.48;;;;;;;11.54;70.51;102804.91;5040442;28;20833;-71
2022/11/11 01:57:21;;;;;;;14.95;11.65;;;;;;;11.54;70.71;102810.47;5037217;28;20032;-71
2022/11/11 01:59:49;;;;;;;15.70;12.25;;;;;;;11.51;70.62;102810.91;5053395;28;20102;-71
2022/11/11 02:02:25;;;;;;;17.40;12.32;;;;;;;11.49;70.86;102813.03;5043895;28;20036;-71
2022/11/11 02:07:36;;;;;;;20.92;12.50;;;;;;;11.44;71.08;102801.69;5042931;28;20045;-71
2022/11/11 02:10:06;;;;;;;15.13;12.43;;;;;;;11.40;71.18;102802.34;5038109;28;20037;-71
2022/11/11 02:15:15;;;;;;;16.15;12.82;;;;;;;11.40;70.95;102808.75;5033286;28;20099;-71
2022/11/11 02:17:40;;;;;;;19.05;13.02;;;;;;;11.37;71.20;102803.59;5041638;28;20136;-71
2022/11/11 02:20:08;;;;;;;17.60;12.52;;;;;;;11.34;71.19;102804.03;5041081;28;20044;-71
2022/11/11 02:22:43;;;;;;;19.70;13.32;;;;;;;11.32;71.41;102789.50;5046787;28;20075;-71
2022/11/11 02:25:12;;;;;;;19.77;12.48;;;;;;;11.33;71.45;102799.53;5050209;28;20128;-71
2022/11/11 02:27:41;;;;;;;18.75;12.38;;;;;;;11.36;71.32;102788.00;5037159;28;20162;-71
2022/11/11 02:30:14;;;;;;;17.55;11.77;;;;;;;11.35;71.19;102777.06;5039672;28;20631;-71
2022/11/11 02:32:50;;;;;;;22.63;13.55;;;;;;;11.31;71.45;102771.94;5042363;28;20020;-71
2022/11/11 02:35:20;;;;;;;17.92;12.77;;;;;;;11.29;71.33;102773.22;5051230;28;20025;-71
2022/11/11 02:37:49;;;;;;;18.17;12.40;;;;;;;11.29;71.31;102773.22;5040281;28;20394;-71
2022/11/11 02:40:33;;;;;;;17.27;12.50;;;;;;;11.36;71.14;102776.88;5041037;28;20452;-71
2022/11/11 02:42:59;;;;;;;14.98;11.95;;;;;;;11.31;70.92;102783.03;5036909;28;20037;-71
2022/11/11 02:45:24;;;;;;;16.05;11.90;;;;;;;11.30;71.20;102792.47;5047915;28;20091;-71
2022/11/11 02:47:49;;;;;;;16.05;11.45;;;;;;;11.30;71.36;102781.34;5052392;28;20033;-71
2022/11/11 02:50:15;;;;;;;14.18;11.25;;;;;;;11.15;71.60;102779.81;5052093;28;20098;-71
2022/11/11 02:52:40;;;;;;;17.25;11.23;;;;;;;11.15;71.34;102782.59;5048503;28;20033;-71
2022/11/11 02:55:06;;;;;;;15.73;11.93;;;;;;;11.14;71.77;102780.88;5053592;28;20061;-71
2022/11/11 02:57:32;;;;;;;15.25;11.68;;;;;;;11.12;71.77;102771.88;5052859;28;20049;-71
2022/11/11 02:59:59;;;;;;;15.00;11.20;;;;;;;11.20;71.42;102775.34;5051351;28;20068;-71
2022/11/11 03:02:26;;;;;;;13.15;11.07;;;;;;;11.17;71.48;102770.22;5050411;28;20637;-71
2022/11/11 03:04:52;;;;;;;19.13;11.70;;;;;;;11.16;71.44;102762.06;5052970;28;20112;-71
2022/11/11 03:07:17;;;;;;;18.08;11.65;;;;;;;11.16;71.53;102767.63;5053489;28;20440;-71
2022/11/11 03:09:42;;;;;;;18.38;12.05;;;;;;;11.18;71.43;102771.06;5044102;28;20124;-72
2022/11/11 03:12:08;;;;;;;17.17;12.05;;;;;;;11.22;71.35;102761.22;5052754;28;20091;-71
2022/11/11 03:14:33;;;;;;;17.30;11.63;;;;;;;11.16;71.62;102762.94;5053886;28;20031;-71
2022/11/11 03:19:42;;;;;;;13.45;10.45;;;;;;;11.10;71.77;102768.47;5034108;28;20089;-72
2022/11/11 03:22:07;;;;;;;15.77;10.88;;;;;;;11.16;71.83;102775.97;5034794;28;20030;-71
2022/11/11 03:27:16;;;;;;;15.90;10.02;;;;;;;11.20;71.49;102782.81;5046091;28;20418;-71
2022/11/11 03:29:41;;;;;;;14.40;10.52;;;;;;;11.17;71.49;102789.66;5053309;28;20029;-73
2022/11/11 03:32:07;;;;;;;15.18;10.52;;;;;;;11.18;71.63;102785.81;5049536;28;20040;-71
2022/11/11 03:34:33;;;;;;;17.92;11.02;;;;;;;11.18;71.44;102793.28;5052486;28;20500;-72
2022/11/11 03:39:43;;;;;;;13.25;10.70;;;;;;;11.19;71.29;102789.44;5047447;28;20057;-72
2022/11/11 03:42:08;;;;;;;12.10;9.75;;;;;;;11.16;71.29;102787.97;5036619;28;20477;-71
2022/11/11 03:44:33;;;;;;;15.35;10.73;;;;;;;11.11;71.67;102779.38;5047613;28;20021;-71
2022/11/11 03:46:58;;;;;;;14.73;10.35;;;;;;;11.12;71.72;102781.09;5032155;28;20025;-71
2022/11/11 03:49:24;;;;;;;16.58;10.77;;;;;;;11.14;71.31;102775.31;5052193;28;20044;-71
2022/11/11 03:51:49;;;;;;;14.60;9.98;;;;;;;11.09;71.73;102775.97;5047032;28;20539;-71
2022/11/11 03:54:14;;;;;;;17.45;10.40;;;;;;;11.11;71.74;102775.75;5031372;28;20485;-71
2022/11/11 03:56:39;;;;;;;13.20;9.77;;;;;;;11.10;71.60;102769.34;5032135;28;20029;-71
2022/11/11 03:59:05;;;;;;;13.95;9.80;;;;;;;11.05;71.82;102778.31;5032196;28;20033;-71
2022/11/11 04:12:28;;;;;;;14.38;9.95;;;;;;;10.96;71.94;102785.09;5044718;28;20079;-72
2022/11/11 04:17:37;;;;;;;15.18;11.10;;;;;;;10.88;72.53;102793.63;5038901;28;20107;-72
2022/11/11 04:22:47;;;;;;;17.08;11.38;;;;;;;10.87;72.22;102800.25;5031989;28;20515;-72
2022/11/11 04:30:45;;;;;;;14.13;10.85;;;;;;;10.83;72.24;102796.16;5035312;28;20060;-71
2022/11/11 04:33:10;;;;;;;14.90;11.65;;;;;;;10.85;72.02;102794.06;5031142;28;20038;-71
2022/11/11 04:35:35;;;;;;;16.73;11.60;;;;;;;10.74;72.34;102797.41;5030298;28;20033;-71
2022/11/11 04:41:02;;;;;;;16.33;11.75;;;;;;;10.74;72.55;102800.19;5038373;28;20036;-71
2022/11/11 04:43:31;;;;;;;16.67;11.73;;;;;;;10.70;72.59;102790.56;5033752;28;20034;-71
2022/11/11 04:46:00;;;;;;;18.63;11.77;;;;;;;10.71;72.58;102795.91;5033861;28;20043;-71
2022/11/11 04:48:26;;;;;;;16.42;10.88;;;;;;;10.77;72.47;102791.47;5035829;28;20116;-72
2022/11/11 04:50:52;;;;;;;14.48;11.10;;;;;;;10.77;72.24;102797.88;5033148;28;20117;-71
2022/11/11 04:53:18;;;;;;;18.55;11.70;;;;;;;10.80;72.40;102794.66;5051045;28;20111;-71
2022/11/11 04:58:31;;;;;;;16.52;11.02;;;;;;;10.70;72.38;102796.97;5049925;28;20527;-72
2022/11/11 05:00:56;;;;;;;14.57;11.23;;;;;;;10.71;72.54;102793.13;5048189;28;20029;-72
2022/11/11 05:03:24;;;;;;;16.98;11.15;;;;;;;10.77;72.23;102791.47;5046235;28;20120;-72
2022/11/11 05:08:56;;;;;;;16.13;11.75;;;;;;;10.70;72.07;102787.78;5039911;28;20549;-71
2022/11/11 05:11:35;;;;;;;13.57;10.85;;;;;;;10.78;72.12;102787.59;5028568;28;20083;-72
2022/11/11 05:22:26;;;;;;;14.68;11.10;;;;;;;10.68;72.12;102792.69;5035060;28;20487;-71
2022/11/11 05:27:35;;;;;;;14.35;10.95;;;;;;;10.72;71.75;102793.97;5054795;28;20047;-71
2022/11/11 05:30:02;;;;;;;14.68;10.38;;;;;;;10.70;71.84;102799.75;5052840;28;20033;-71
2022/11/11 05:32:27;;;;;;;13.77;10.55;;;;;;;10.71;71.83;102795.06;5053276;28;20060;-71
2022/11/11 05:34:53;;;;;;;13.80;10.52;;;;;;;10.72;71.94;102803.16;5050606;28;20480;-71
2022/11/11 05:37:18;;;;;;;12.73;9.90;;;;;;;10.75;71.70;102813.88;5054228;28;20089;-71
2022/11/11 05:39:44;;;;;;;13.77;10.90;;;;;;;10.65;71.78;102802.31;5051397;28;20095;-71
2022/11/11 05:42:10;;;;;;;14.55;10.23;;;;;;;10.67;71.91;102807.63;5052579;28;20033;-71
2022/11/11 05:44:35;;;;;;;13.25;11.25;;;;;;;10.66;71.58;102806.78;5038050;28;20030;-71
2022/11/11 05:47:01;;;;;;;13.73;10.73;;;;;;;10.65;71.47;102799.53;5050783;28;20056;-72
2022/11/11 05:49:27;;;;;;;18.55;11.57;;;;;;;10.62;71.81;102796.28;5049164;28;20025;-72
2022/11/11 05:51:54;;;;;;;14.05;11.15;;;;;;;10.59;71.58;102794.78;5052634;28;20028;-72
2022/11/11 05:54:20;;;;;;;14.93;10.63;;;;;;;10.56;71.28;102795.19;5033308;28;20029;-71
2022/11/11 05:56:45;;;;;;;15.15;11.13;;;;;;;10.55;71.37;102796.25;5044811;28;20108;-71
2022/11/11 05:59:10;;;;;;;14.20;10.73;;;;;;;10.53;71.29;102793.69;5049827;28;20387;-71
2022/11/11 06:01:36;;;;;;;15.20;11.63;;;;;;;10.52;71.34;102794.72;5040514;28;20063;-71
2022/11/11 06:04:02;;;;;;;15.73;11.93;;;;;;;10.53;71.19;102796.47;5038867;28;20036;-73
2022/11/11 06:06:28;;;;;;;14.80;11.32;;;;;;;10.53;70.91;102799.25;5041192;28;20029;-68
2022/11/11 06:08:54;;;;;;;17.33;11.93;;;;;;;10.46;71.20;102812.22;5042557;28;20119;-69
2022/11/11 06:11:19;;;;;;;15.48;11.60;;;;;;;10.41;71.15;102806.41;5054065;28;20419;-69
2022/11/11 06:13:45;;;;;;;15.80;11.15;;;;;;;10.38;71.35;102812.41;5037793;28;20546;-68
2022/11/11 06:16:10;;;;;;;14.88;11.25;;;;;;;10.40;71.20;102815.81;5037958;28;20078;-68
2022/11/11 06:18:35;;;;;;;15.30;12.25;;;;;;;10.33;71.30;102817.69;5043162;28;20075;-72
2022/11/11 06:21:01;;;;;;;15.98;11.38;;;;;;;10.36;71.26;102806.19;5029270;28;20067;-68
2022/11/11 06:23:28;;;;;;;13.32;11.10;;;;;;;10.35;71.06;102814.72;5033071;28;20102;-72
2022/11/11 06:26:12;;;;;;;13.30;11.27;;;;;;;10.36;71.03;102821.97;5031664;28;20033;-69
2022/11/11 06:28:55;;;;;;;13.02;11.65;;;;;;;10.38;70.99;102833.75;5045705;28;20070;-72
2022/11/11 06:31:24;;;;;;;;;;;;;;;10.50;70.86;102829.34;5045417;28;20477;-70
2022/11/11 06:33:49;;;;;;;18.83;11.98;;;;;;;10.32;70.73;102833.47;5041462;28;19925;-70
2022/11/11 06:36:17;;;;;;;16.88;12.48;;;;;;;10.15;70.79;102842.31;5031284;28;20049;-70
2022/11/11 06:38:42;;;;;;;14.32;11.48;;;;;;;10.15;71.18;102833.97;5029063;28;20025;-70
2022/11/11 06:41:11;;;;;;;14.30;11.50;;;;;;;10.18;71.12;102840.00;5044046;28;20032;-70
2022/11/11 06:43:40;;;;;;;13.73;11.88;;;;;;;10.15;70.95;102836.75;5046566;28;20407;-69
2022/11/11 06:46:08;;;;;;;15.07;12.80;;;;;;;10.11;70.86;102832.66;5037539;28;20028;-71
2022/11/11 06:48:33;;;;;;;15.07;12.48;;;;;;;10.07;70.94;102841.38;5044629;28;20029;-72
2022/11/11 06:51:04;;;;;;;20.45;12.40;;;;;;;10.08;71.04;102845.03;5040940;28;20037;-69
2022/11/11 06:53:29;;;;;;;16.00;12.63;;;;;;;10.09;70.77;102843.94;5032421;28;20034;-69
2022/11/11 06:55:55;;;;;;;16.55;12.02;;;;;;;10.08;70.70;102845.88;5047292;28;20380;-65
2022/11/11 06:58:21;;;;;;;13.52;11.15;;;;;;;10.11;72.36;102841.00;5040765;28;20477;-71
2022/11/11 07:00:47;;;;;;;14.27;11.65;;;;;;;10.16;71.08;102836.53;5033484;28;20056;-71
2022/11/11 07:03:15;;;;;;;13.55;11.30;;;;;;;10.17;70.82;102840.16;5036014;28;20033;-72
2022/11/11 07:05:41;;;;;;;15.85;11.30;;;;;;;10.11;70.46;102838.22;5035122;28;20037;-72
2022/11/11 07:08:09;;;;;;;14.95;11.15;;;;;;;10.03;70.81;102840.06;5032694;28;20026;-72
2022/11/11 07:10:37;;;;;;;13.82;11.65;;;;;;;9.93;70.74;102838.69;5049599;28;20095;-67
2022/11/11 07:13:03;;;;;;;18.60;11.35;;;;;;;9.92;71.95;102837.00;5046439;28;20043;-69
2022/11/11 07:15:29;;;;;;;15.80;10.68;;;;;;;9.86;71.24;102852.50;5045124;28;20053;-67
2022/11/11 07:17:54;;;;;;;16.70;11.38;;;;;;;9.82;71.26;102845.63;5043301;28;20055;-68
2022/11/11 07:20:20;;;;;;;12.02;10.18;;;;;;;9.86;71.25;102855.28;5038036;28;20435;-69
2022/11/11 07:22:45;;;;;;;16.20;10.52;;;;;;;9.86;71.66;102851.66;5047721;28;20036;-69
2022/11/11 07:25:10;;;;;;;13.75;10.80;;;;;;;9.86;71.50;102866.38;5043638;28;20035;-69
2022/11/11 07:27:37;;;;;;;13.82;10.65;;;;;;;9.86;71.37;102862.75;5033886;28;20041;-69
2022/11/11 07:30:04;;;;;;;15.23;11.02;;;;;;;9.88;71.37;102864.28;5030364;28;20021;-67
2022/11/11 07:32:30;;;;;;;13.48;10.73;;;;;;;9.79;71.30;102862.69;5039693;28;20036;-69
2022/11/11 07:34:55;;;;;;;16.23;11.00;;;;;;;9.82;71.26;102865.94;5036354;28;20033;-67
2022/11/11 07:37:20;;;;;;;14.45;9.70;;;;;;;9.87;71.31;102868.09;5038694;28;20131;-68
2022/11/11 07:39:45;;;;;;;19.75;11.27;;;;;;;9.79;71.23;102871.88;5041231;28;20032;-67
2022/11/11 07:42:11;;;;;;;15.65;10.85;;;;;;;9.82;71.19;102881.69;5042235;28;20033;-66
2022/11/11 07:44:36;;;;;;;14.57;11.07;;;;;;;9.82;70.99;102881.69;5046988;28;20115;-65
2022/11/11 07:47:01;;;;;;;13.30;10.40;;;;;;;9.85;71.49;102870.22;5038819;28;20025;-67
2022/11/11 07:49:28;;;;;;;13.25;11.10;;;;;;;9.86;71.51;102871.91;5039427;28;20514;-67
2022/11/11 07:51:53;;;;;;;16.63;11.77;;;;;;;9.86;71.20;102880.25;5038449;28;20029;-67
2022/11/11 07:54:18;;;;;;;15.30;11.32;;;;;;;9.90;71.29;102884.31;5040709;28;20029;-70
2022/11/11 07:56:44;;;;;;;15.63;11.05;;;;;;;9.89;71.00;102892.88;5043587;28;20021;-67
2022/11/11 07:59:09;;;;;;;14.52;11.27;;;;;;;9.91;71.02;102899.94;5049462;28;20025;-69
2022/11/11 08:01:34;;;;;;;16.67;11.68;;;;;;;9.93;71.00;102897.81;5049760;28;20025;-69
2022/11/11 08:03:59;;;;;;;17.40;10.98;;;;;;;9.92;70.93;102893.31;5035850;28;20754;-70
2022/11/11 08:06:25;;;;;;;16.67;12.30;;;;;;;9.94;70.88;102902.31;5037095;28;20480;-70
2022/11/11 08:08:53;;;;;;;16.80;12.25;;;;;;;9.98;70.80;102913.84;5050353;28;20056;-74
2022/11/11 08:13:39;;;;;;;19.35;12.20;;;;;;;10.00;70.66;102915.38;5036926;28;20029;-73
2022/11/11 08:14:04;;;;;;;15.43;11.05;;;;;;;10.03;70.60;102917.75;5056454;28;20101;-71
2022/11/11 08:16:29;;;;;;;16.13;11.13;;;;;;;10.08;70.44;102915.25;5037921;28;20489;-71
2022/11/11 08:18:57;;;;;;;14.15;11.52;;;;;;;10.09;70.45;102918.88;5035744;28;20580;-69
2022/11/11 08:21:22;;;;;;;13.52;11.30;;;;;;;10.06;70.48;102925.69;5042049;28;20028;-70
2022/11/11 08:23:50;;;;;;;14.60;11.73;;;;;;;10.07;70.23;102921.84;5032048;28;20074;-72
2022/11/11 08:26:23;;;;;;;13.98;11.43;;;;;;;10.08;70.25;102925.47;5040567;28;20045;-69
2022/11/11 08:28:50;;;;;;;;;;;;;;;10.26;70.32;102922.28;5043836;28;20117;-68
2022/11/11 08:31:15;;;;;;;13.77;10.90;;;;;;;10.16;70.01;102933.66;5047177;28;19920;-68
2022/11/11 08:33:40;;;;;;;15.13;11.55;;;;;;;10.13;70.16;102938.75;5043157;28;20629;-69
2022/11/11 08:36:06;;;;;;;13.57;10.85;;;;;;;10.14;69.90;102941.34;5032356;28;20033;-69
2022/11/11 08:38:33;;;;;;;13.25;10.52;;;;;;;10.16;70.22;102943.91;5035104;28;20112;-68
2022/11/11 08:41:03;;;;;;;15.57;11.07;;;;;;;10.20;70.19;102950.78;5029579;28;20052;-68
2022/11/11 08:43:31;;;;;;;13.85;10.52;;;;;;;10.23;69.96;102950.38;5032726;28;20022;-66
2022/11/11 08:45:57;;;;;;;13.75;10.35;;;;;;;10.30;69.76;102956.91;5031791;28;20087;-72
2022/11/11 08:48:23;;;;;;;11.15;9.95;;;;;;;10.27;69.67;102958.16;5034937;28;20164;-69
2022/11/11 08:50:51;;;;;;;12.98;10.30;;;;;;;10.28;70.15;102962.63;5036703;28;20544;-71
2022/11/11 08:53:16;;;;;;;13.25;9.57;;;;;;;10.32;69.74;102957.53;5046721;28;20060;-70
2022/11/11 08:55:41;;;;;;;12.65;9.73;;;;;;;10.32;69.57;102954.75;5044626;28;20270;-72
2022/11/11 08:58:07;;;;;;;10.93;8.90;;;;;;;10.27;69.68;102952.59;5049116;28;20022;-71
2022/11/11 09:00:33;;;;;;;14.18;9.88;;;;;;;10.26;69.86;102961.13;5035616;28;20361;-73
2022/11/11 09:03:20;;;;;;;13.07;9.77;;;;;;;10.22;70.09;102960.63;5043020;28;20456;-72
2022/11/11 09:05:46;;;;;;;12.48;9.50;;;;;;;10.24;69.89;102954.88;5041802;28;20095;-73
2022/11/11 09:08:15;;;;;;;11.40;10.00;;;;;;;10.27;69.99;102949.81;5032725;28;20108;-71
2022/11/11 09:10:40;;;;;;;13.25;9.07;;;;;;;10.30;69.61;102959.66;5035305;28;20052;-72
2022/11/11 09:13:06;;;;;;;12.13;8.70;;;;;;;10.37;69.76;102946.69;5041689;28;20029;-72
2022/11/11 09:15:34;;;;;;;9.68;8.43;;;;;;;10.44;69.81;102964.25;5037225;28;20083;-71
2022/11/11 09:18:00;;;;;;;9.82;8.45;;;;;;;10.51;69.82;102958.78;5032987;28;20483;-73
2022/11/11 09:20:28;;;;;;;11.95;9.07;;;;;;;10.57;69.57;102958.84;5035324;28;20029;-74
2022/11/11 09:22:53;;;;;;;9.80;8.23;;;;;;;10.70;69.58;102960.00;5038386;28;20044;-70
2022/11/11 09:25:19;;;;;;;11.52;8.75;;;;;;;10.77;69.30;102956.19;5037452;28;20038;-70
2022/11/11 09:27:55;;;;;;;12.20;8.90;;;;;;;10.88;69.21;102965.88;5043419;28;20423;-71
2022/11/11 09:30:20;;;;;;;10.23;8.20;;;;;;;11.00;68.83;102964.25;5049446;28;20074;-71
2022/11/11 09:32:45;;;;;;;10.90;8.25;;;;;;;11.09;68.29;102966.88;5050017;28;20028;-69
2022/11/11 09:35:11;;;;;;;10.00;8.88;;;;;;;11.16;68.11;102968.63;5050500;28;20033;-70
2022/11/11 09:37:36;;;;;;;10.00;8.40;;;;;;;11.23;67.91;102968.63;5037817;28;20049;-71
2022/11/11 09:40:02;;;;;;;9.43;7.90;;;;;;;11.30;67.78;102962.03;5041202;28;20037;-73
2022/11/11 09:42:42;;;;;;;9.38;7.82;;;;;;;11.41;67.74;102971.72;5034783;28;20029;-71
2022/11/11 09:45:27;;;;;;;10.35;7.93;;;;;;;11.49;67.67;102971.56;5039855;28;20033;-72
2022/11/11 09:48:04;;;;;;;8.82;7.80;;;;;;;11.46;67.12;102974.75;5045081;28;20051;-72
2022/11/11 09:50:34;;;;;;;10.50;7.60;;;;;;;11.56;66.84;102974.38;5047289;28;20103;-72
2022/11/11 09:53:02;;;;;;;9.55;7.68;;;;;;;11.63;66.86;102975.25;5049898;28;20025;-71
2022/11/11 09:55:35;;;;;;;9.32;7.80;;;;;;;11.64;65.95;102981.66;5049876;28;20056;-71
2022/11/11 09:58:05;;;;;;;9.00;7.85;;;;;;;11.65;66.12;102975.03;5038490;28;20057;-71
2022/11/11 10:00:40;;;;;;;8.80;7.90;;;;;;;11.65;66.34;102978.66;5032918;28;20040;-70
2022/11/11 10:03:09;;;;;;;11.68;8.07;;;;;;;11.66;66.37;102982.31;5032973;28;20030;-70
2022/11/11 10:05:46;;;;;;;9.13;7.80;;;;;;;11.71;65.98;102974.19;5044430;28;20033;-70
2022/11/11 10:08:35;;;;;;;12.25;7.88;;;;;;;11.78;66.61;102978.69;5053016;28;20029;-68
2022/11/11 10:11:04;;;;;;;12.38;8.07;;;;;;;11.83;65.91;102980.00;5052151;28;20138;-69
2022/11/11 10:13:35;;;;;;;12.38;7.28;;;;;;;11.89;66.05;102973.63;5049844;28;20033;-72
2022/11/11 10:16:17;;;;;;;10.07;7.25;;;;;;;11.86;65.47;102976.84;5040738;28;20033;-69
2022/11/11 10:18:49;;;;;;;9.18;7.28;;;;;;;11.93;66.19;102975.78;5036716;28;20535;-70
2022/11/11 10:21:23;;;;;;;8.35;7.43;;;;;;;11.97;65.19;102985.44;5045329;28;20488;-70
2022/11/11 10:23:54;;;;;;;8.00;7.18;;;;;;;12.02;65.26;102976.44;5052420;28;20035;-70
2022/11/11 10:26:26;;;;;;;9.10;6.80;;;;;;;12.06;65.36;102979.66;5037289;28;20041;-70
2022/11/11 10:28:52;;;;;;;8.65;6.85;;;;;;;12.12;65.59;102978.84;5052292;28;20029;-70
2022/11/11 10:31:21;;;;;;;10.05;6.88;;;;;;;12.19;65.14;102979.69;5051604;28;20025;-70
2022/11/11 10:33:49;;;;;;;9.15;6.78;;;;;;;12.20;64.76;102981.41;5044705;28;20047;-70
2022/11/11 10:36:19;;;;;;;7.30;6.13;;;;;;;12.25;64.84;102987.19;5051550;28;20059;-71
2022/11/11 10:38:58;;;;;;;9.05;6.93;;;;;;;12.34;65.54;102983.16;5049848;28;20029;-71
2022/11/11 10:41:28;;;;;;;9.85;6.15;;;;;;;12.30;64.70;102981.88;5042244;28;20037;-73
2022/11/11 10:43:53;;;;;;;8.02;6.32;;;;;;;12.36;64.70;102991.28;5044839;28;20082;-73
2022/11/11 10:46:41;;;;;;;8.50;6.65;;;;;;;12.41;64.19;102988.69;5038744;28;20116;-72
2022/11/11 10:49:20;;;;;;;9.25;5.90;;;;;;;12.47;64.01;102991.50;5038206;28;20036;-73
2022/11/11 10:52:00;;;;;;;6.72;5.57;;;;;;;12.51;63.80;102989.16;5045567;28;20032;-74
2022/11/11 10:54:40;;;;;;;7.10;5.78;;;;;;;12.55;63.93;102979.28;5039432;28;20033;-72
2022/11/11 10:57:30;;;;;;;7.65;6.57;;;;;;;12.58;64.09;102976.09;5046655;28;20079;-71
2022/11/11 11:00:07;;;;;;;7.68;5.47;;;;;;;12.50;63.61;102979.94;5044235;28;20509;-71
2022/11/11 11:02:47;;;;;;;6.93;4.75;;;;;;;12.47;63.44;102974.78;5046344;28;20051;-72
2022/11/11 11:05:44;;;;;;;7.20;5.57;;;;;;;12.48;63.89;102975.63;5048234;28;20111;-72
2022/11/11 11:08:20;;;;;;;7.82;5.60;;;;;;;12.53;64.06;102975.84;5051571;28;20127;-71
2022/11/11 11:11:13;;;;;;;6.90;5.28;;;;;;;12.61;64.38;102972.00;5035248;28;20025;-75
2022/11/11 11:13:43;;;;;;;6.13;4.40;;;;;;;12.67;64.00;102971.13;5040436;28;20033;-74
2022/11/11 11:16:17;;;;;;;6.80;4.20;;;;;;;12.69;63.72;102969.88;5029156;28;20148;-74
2022/11/11 11:18:45;;;;;;;6.22;4.50;;;;;;;12.68;63.33;102967.28;5034550;28;20033;-75
2022/11/11 11:21:11;;;;;;;5.47;3.75;;;;;;;12.68;63.00;102961.69;5048243;28;20135;-74
2022/11/11 11:23:39;;;;;;;5.57;3.85;;;;;;;12.68;62.91;102962.56;5045847;28;20079;-74
2022/11/11 11:26:06;;;;;;;5.68;3.97;;;;;;;12.68;63.14;102968.13;5041986;28;20029;-70
2022/11/11 11:28:33;;;;;;;4.68;3.90;;;;;;;12.67;62.78;102971.13;5042854;28;20025;-71
2022/11/11 11:31:02;;;;;;;6.32;3.92;;;;;;;12.63;63.35;102959.56;5033017;28;20047;-71
2022/11/11 11:33:51;;;;;;;5.10;3.55;;;;;;;12.64;63.36;102964.06;5040562;28;20021;-73
2022/11/11 11:36:17;;;;;;;4.05;3.25;;;;;;;12.64;62.89;102971.56;5035095;28;20045;-71
2022/11/11 11:38:46;;;;;;;6.35;3.38;;;;;;;12.64;62.79;102964.06;5035196;28;20032;-72
2022/11/11 11:41:12;;;;;;;5.00;3.38;;;;;;;12.64;62.79;102961.28;5040573;28;20024;-73
2022/11/11 11:43:41;;;;;;;4.47;3.08;;;;;;;12.57;63.17;102960.41;5032064;28;20029;-72
2022/11/11 11:46:27;;;;;;;4.90;3.08;;;;;;;12.63;63.67;102955.94;5037309;28;20022;-72
2022/11/11 11:48:58;;;;;;;4.28;2.83;;;;;;;12.62;63.01;102962.59;5031930;28;20368;-70
2022/11/11 11:51:45;;;;;;;6.30;2.90;;;;;;;12.66;63.53;102958.28;5037175;28;20090;-74
2022/11/11 11:54:48;;;;;;;4.18;2.55;;;;;;;12.69;63.31;102958.72;5037813;28;20057;-72
2022/11/11 11:57:40;;;;;;;4.68;2.58;;;;;;;12.71;63.19;102955.69;5044309;28;20037;-72
2022/11/11 12:00:17;;;;;;;3.75;2.13;;;;;;;12.72;63.37;102949.06;5046571;28;20025;-76
2022/11/11 12:03:05;;;;;;;3.90;2.30;;;;;;;12.75;63.58;102952.25;5033867;28;20033;-75
2022/11/11 12:05:42;;;;;;;7.00;2.22;;;;;;;12.78;63.14;102949.06;5047561;28;20029;-76
2022/11/11 12:08:22;;;;;;;5.18;2.10;;;;;;;12.81;62.63;102941.31;5032448;28;20025;-76
2022/11/11 12:10:56;;;;;;;4.18;2.00;;;;;;;12.81;62.20;102947.78;5037160;28;20132;-74
2022/11/11 12:13:44;;;;;;;2.28;1.83;;;;;;;12.85;62.99;102937.00;5030977;28;20037;-76
2022/11/11 12:16:31;;;;;;;3.45;2.30;;;;;;;12.88;62.90;102939.38;5046666;28;20029;-76
2022/11/11 12:19:55;;;;;;;3.90;2.22;;;;;;;12.91;62.59;102933.38;5032924;28;20461;-73
2022/11/11 12:22:35;;;;;;;3.50;1.83;;;;;;;12.92;62.36;102930.34;5070872;28;20040;-73
2022/11/11 12:25:29;;;;;;;3.70;1.80;;;;;;;12.95;62.26;102932.72;5049666;28;20454;-73
2022/11/11 12:27:58;;;;;;;2.60;1.48;;;;;;;12.95;61.98;102929.06;5042202;28;20033;-73
2022/11/11 12:30:27;;;;;;;3.35;1.77;;;;;;;12.94;62.11;102930.16;5036730;28;20033;-74
2022/11/11 12:33:05;;;;;;;2.65;1.75;;;;;;;12.95;62.23;102918.78;5043174;28;20028;-72
2022/11/11 12:35:44;;;;;;;2.55;1.48;;;;;;;12.96;62.36;102925.19;5039483;28;20033;-72
2022/11/11 12:38:18;;;;;;;3.95;1.77;;;;;;;12.95;61.66;102918.78;5049943;28;20052;-73